sensor_id;sensor_type;location;lat;lon;timestamp;P1;durP1;ratioP1;P2;durP2;ratioP2
63173;SDS011;49265;54.526;9.028;2024-02-26T00:01:21;5.35;;;3.80;;
63173;SDS011;49265;54.526;9.028;2024-02-26T00:03:46;5.65;;;4.22;;
63173;SDS011;49265;54.526;9.028;2024-02-26T00:06:15;4.70;;;3.20;;
63173;SDS011;49265;54.526;9.028;2024-02-26T00:08:40;5.28;;;4.07;;
63173;SDS011;49265;54.526;9.028;2024-02-26T00:11:06;4.95;;;3.63;;
63173;SDS011;49265;54.526;9.028;2024-02-26T00:13:31;5.35;;;4.20;;
63173;SDS011;49265;54.526;9.028;2024-02-26T00:15:56;5.65;;;3.97;;
63173;SDS011;49265;54.526;9.028;2024-02-26T00:18:22;5.55;;;4.30;;
63173;SDS011;49265;54.526;9.028;2024-02-26T00:20:47;5.68;;;4.10;;
63173;SDS011;49265;54.526;9.028;2024-02-26T00:23:16;4.68;;;3.92;;
63173;SDS011;49265;54.526;9.028;2024-02-26T00:25:41;5.28;;;3.75;;
63173;SDS011;49265;54.526;9.028;2024-02-26T00:28:08;5.75;;;4.32;;
63173;SDS011;49265;54.526;9.028;2024-02-26T00:30:34;5.75;;;4.03;;
63173;SDS011;49265;54.526;9.028;2024-02-26T00:32:59;4.22;;;3.63;;
63173;SDS011;49265;54.526;9.028;2024-02-26T00:35:24;5.07;;;3.88;;
63173;SDS011;49265;54.526;9.028;2024-02-26T00:37:50;4.88;;;3.42;;
63173;SDS011;49265;54.526;9.028;2024-02-26T00:40:15;4.68;;;3.78;;
63173;SDS011;49265;54.526;9.028;2024-02-26T00:42:40;4.53;;;3.85;;
63173;SDS011;49265;54.526;9.028;2024-02-26T00:45:11;5.40;;;3.85;;
63173;SDS011;49265;54.526;9.028;2024-02-26T00:47:36;4.95;;;3.75;;
63173;SDS011;49265;54.526;9.028;2024-02-26T00:50:01;5.70;;;4.13;;
63173;SDS011;49265;54.526;9.028;2024-02-26T00:52:27;4.88;;;3.30;;
63173;SDS011;49265;54.526;9.028;2024-02-26T00:54:52;5.88;;;3.83;;
63173;SDS011;49265;54.526;9.028;2024-02-26T00:57:18;4.70;;;3.80;;
63173;SDS011;49265;54.526;9.028;2024-02-26T00:59:43;4.32;;;2.95;;
63173;SDS011;49265;54.526;9.028;2024-02-26T01:02:08;4.50;;;3.42;;
63173;SDS011;49265;54.526;9.028;2024-02-26T01:04:34;4.82;;;4.00;;
63173;SDS011;49265;54.526;9.028;2024-02-26T01:06:59;4.60;;;4.00;;
63173;SDS011;49265;54.526;9.028;2024-02-26T01:09:24;5.32;;;4.03;;
63173;SDS011;49265;54.526;9.028;2024-02-26T01:11:50;5.03;;;3.45;;
63173;SDS011;49265;54.526;9.028;2024-02-26T01:14:15;5.43;;;4.15;;
63173;SDS011;49265;54.526;9.028;2024-02-26T01:16:40;6.15;;;4.32;;
63173;SDS011;49265;54.526;9.028;2024-02-26T01:19:06;5.03;;;3.88;;
63173;SDS011;49265;54.526;9.028;2024-02-26T01:21:31;7.13;;;4.25;;
63173;SDS011;49265;54.526;9.028;2024-02-26T01:23:57;5.80;;;4.63;;
63173;SDS011;49265;54.526;9.028;2024-02-26T01:26:22;6.43;;;4.65;;
63173;SDS011;49265;54.526;9.028;2024-02-26T01:28:48;5.35;;;3.63;;
63173;SDS011;49265;54.526;9.028;2024-02-26T01:31:13;6.70;;;4.45;;
63173;SDS011;49265;54.526;9.028;2024-02-26T01:33:38;7.25;;;3.95;;
63173;SDS011;49265;54.526;9.028;2024-02-26T01:36:04;5.15;;;3.95;;
63173;SDS011;49265;54.526;9.028;2024-02-26T01:38:29;4.95;;;4.13;;
63173;SDS011;49265;54.526;9.028;2024-02-26T01:40:54;6.97;;;4.75;;
63173;SDS011;49265;54.526;9.028;2024-02-26T01:43:20;5.68;;;4.53;;
63173;SDS011;49265;54.526;9.028;2024-02-26T01:45:45;5.32;;;3.65;;
63173;SDS011;49265;54.526;9.028;2024-02-26T01:48:10;6.63;;;4.93;;
63173;SDS011;49265;54.526;9.028;2024-02-26T01:50:36;5.45;;;4.43;;
63173;SDS011;49265;54.526;9.028;2024-02-26T01:53:03;6.18;;;4.57;;
63173;SDS011;49265;54.526;9.028;2024-02-26T01:55:28;5.88;;;4.55;;
63173;SDS011;49265;54.526;9.028;2024-02-26T01:57:54;7.65;;;3.95;;
63173;SDS011;49265;54.526;9.028;2024-02-26T02:00:19;6.13;;;4.00;;
63173;SDS011;49265;54.526;9.028;2024-02-26T02:02:45;6.55;;;4.22;;
63173;SDS011;49265;54.526;9.028;2024-02-26T02:07:38;6.13;;;3.83;;
63173;SDS011;49265;54.526;9.028;2024-02-26T02:10:04;6.43;;;4.53;;
63173;SDS011;49265;54.526;9.028;2024-02-26T02:12:30;7.55;;;3.65;;
63173;SDS011;49265;54.526;9.028;2024-02-26T02:14:58;5.57;;;3.40;;
63173;SDS011;49265;54.526;9.028;2024-02-26T02:17:23;8.02;;;4.78;;
63173;SDS011;49265;54.526;9.028;2024-02-26T02:19:49;7.20;;;4.70;;
63173;SDS011;49265;54.526;9.028;2024-02-26T02:22:14;6.47;;;4.20;;
63173;SDS011;49265;54.526;9.028;2024-02-26T02:24:39;5.65;;;3.72;;
63173;SDS011;49265;54.526;9.028;2024-02-26T02:27:04;7.25;;;4.57;;
63173;SDS011;49265;54.526;9.028;2024-02-26T02:29:30;8.35;;;4.75;;
63173;SDS011;49265;54.526;9.028;2024-02-26T02:31:58;7.20;;;4.53;;
63173;SDS011;49265;54.526;9.028;2024-02-26T02:34:24;7.88;;;4.97;;
63173;SDS011;49265;54.526;9.028;2024-02-26T02:36:53;9.35;;;4.53;;
63173;SDS011;49265;54.526;9.028;2024-02-26T02:39:19;7.43;;;5.05;;
63173;SDS011;49265;54.526;9.028;2024-02-26T02:41:44;8.50;;;5.65;;
63173;SDS011;49265;54.526;9.028;2024-02-26T02:44:10;9.80;;;5.15;;
63173;SDS011;49265;54.526;9.028;2024-02-26T02:46:35;8.52;;;4.70;;
63173;SDS011;49265;54.526;9.028;2024-02-26T02:49:01;8.20;;;4.88;;
63173;SDS011;49265;54.526;9.028;2024-02-26T02:51:26;7.05;;;4.70;;
63173;SDS011;49265;54.526;9.028;2024-02-26T02:53:51;8.45;;;4.82;;
63173;SDS011;49265;54.526;9.028;2024-02-26T02:56:17;8.40;;;4.60;;
63173;SDS011;49265;54.526;9.028;2024-02-26T02:58:43;11.00;;;5.90;;
63173;SDS011;49265;54.526;9.028;2024-02-26T03:01:08;11.25;;;5.63;;
63173;SDS011;49265;54.526;9.028;2024-02-26T03:03:33;11.27;;;5.82;;
63173;SDS011;49265;54.526;9.028;2024-02-26T03:05:59;14.00;;;6.07;;
63173;SDS011;49265;54.526;9.028;2024-02-26T03:08:24;11.88;;;6.40;;
63173;SDS011;49265;54.526;9.028;2024-02-26T03:10:51;14.13;;;6.07;;
63173;SDS011;49265;54.526;9.028;2024-02-26T03:13:16;12.38;;;6.30;;
63173;SDS011;49265;54.526;9.028;2024-02-26T03:15:41;13.80;;;6.45;;
63173;SDS011;49265;54.526;9.028;2024-02-26T03:18:07;14.93;;;7.07;;
63173;SDS011;49265;54.526;9.028;2024-02-26T03:20:32;16.00;;;7.60;;
63173;SDS011;49265;54.526;9.028;2024-02-26T03:22:58;16.38;;;7.53;;
63173;SDS011;49265;54.526;9.028;2024-02-26T03:25:24;17.15;;;7.70;;
63173;SDS011;49265;54.526;9.028;2024-02-26T03:27:49;15.40;;;7.75;;
63173;SDS011;49265;54.526;9.028;2024-02-26T03:30:15;16.02;;;7.22;;
63173;SDS011;49265;54.526;9.028;2024-02-26T03:32:40;15.02;;;7.57;;
63173;SDS011;49265;54.526;9.028;2024-02-26T03:35:06;13.77;;;7.20;;
63173;SDS011;49265;54.526;9.028;2024-02-26T03:37:32;15.15;;;8.18;;
63173;SDS011;49265;54.526;9.028;2024-02-26T03:39:58;16.67;;;7.50;;
63173;SDS011;49265;54.526;9.028;2024-02-26T03:42:23;17.83;;;8.30;;
63173;SDS011;49265;54.526;9.028;2024-02-26T03:44:49;16.42;;;7.35;;
63173;SDS011;49265;54.526;9.028;2024-02-26T03:47:14;18.33;;;9.05;;
63173;SDS011;49265;54.526;9.028;2024-02-26T03:49:39;18.55;;;7.45;;
63173;SDS011;49265;54.526;9.028;2024-02-26T03:52:05;17.77;;;8.15;;
63173;SDS011;49265;54.526;9.028;2024-02-26T03:54:30;17.10;;;7.78;;
63173;SDS011;49265;54.526;9.028;2024-02-26T03:56:55;19.33;;;9.63;;
63173;SDS011;49265;54.526;9.028;2024-02-26T03:59:21;19.00;;;8.35;;
63173;SDS011;49265;54.526;9.028;2024-02-26T04:01:48;21.17;;;9.25;;
63173;SDS011;49265;54.526;9.028;2024-02-26T04:04:14;16.88;;;8.23;;
63173;SDS011;49265;54.526;9.028;2024-02-26T04:06:39;20.05;;;10.00;;
63173;SDS011;49265;54.526;9.028;2024-02-26T04:09:05;18.13;;;8.70;;
63173;SDS011;49265;54.526;9.028;2024-02-26T04:11:30;17.67;;;7.60;;
63173;SDS011;49265;54.526;9.028;2024-02-26T04:13:55;17.63;;;7.70;;
63173;SDS011;49265;54.526;9.028;2024-02-26T04:16:22;16.33;;;8.27;;
63173;SDS011;49265;54.526;9.028;2024-02-26T04:18:47;17.95;;;8.10;;
63173;SDS011;49265;54.526;9.028;2024-02-26T04:21:12;18.40;;;7.97;;
63173;SDS011;49265;54.526;9.028;2024-02-26T04:23:37;19.58;;;8.30;;
63173;SDS011;49265;54.526;9.028;2024-02-26T04:26:03;19.33;;;9.18;;
63173;SDS011;49265;54.526;9.028;2024-02-26T04:28:32;20.67;;;9.18;;
63173;SDS011;49265;54.526;9.028;2024-02-26T04:30:57;19.98;;;8.45;;
63173;SDS011;49265;54.526;9.028;2024-02-26T04:33:22;17.23;;;8.55;;
63173;SDS011;49265;54.526;9.028;2024-02-26T04:35:48;18.65;;;8.60;;
63173;SDS011;49265;54.526;9.028;2024-02-26T04:38:13;17.50;;;9.07;;
63173;SDS011;49265;54.526;9.028;2024-02-26T04:40:38;16.55;;;7.78;;
63173;SDS011;49265;54.526;9.028;2024-02-26T04:43:04;17.42;;;8.48;;
63173;SDS011;49265;54.526;9.028;2024-02-26T04:45:29;18.90;;;9.43;;
63173;SDS011;49265;54.526;9.028;2024-02-26T04:47:54;18.58;;;9.15;;
63173;SDS011;49265;54.526;9.028;2024-02-26T04:50:20;17.88;;;7.88;;
63173;SDS011;49265;54.526;9.028;2024-02-26T04:52:45;19.42;;;9.82;;
63173;SDS011;49265;54.526;9.028;2024-02-26T04:55:11;16.83;;;7.72;;
63173;SDS011;49265;54.526;9.028;2024-02-26T04:57:36;19.92;;;9.57;;
63173;SDS011;49265;54.526;9.028;2024-02-26T05:00:01;17.38;;;8.57;;
63173;SDS011;49265;54.526;9.028;2024-02-26T05:02:28;18.67;;;8.63;;
63173;SDS011;49265;54.526;9.028;2024-02-26T05:04:55;17.75;;;8.57;;
63173;SDS011;49265;54.526;9.028;2024-02-26T05:07:20;17.80;;;7.45;;
63173;SDS011;49265;54.526;9.028;2024-02-26T05:09:46;21.15;;;8.65;;
63173;SDS011;49265;54.526;9.028;2024-02-26T05:12:11;97.32;;;11.73;;
63173;SDS011;49265;54.526;9.028;2024-02-26T05:14:37;21.02;;;7.45;;
63173;SDS011;49265;54.526;9.028;2024-02-26T05:17:02;24.48;;;7.22;;
63173;SDS011;49265;54.526;9.028;2024-02-26T05:19:27;30.00;;;7.57;;
63173;SDS011;49265;54.526;9.028;2024-02-26T05:21:52;29.15;;;6.80;;
63173;SDS011;49265;54.526;9.028;2024-02-26T05:24:18;12.27;;;5.80;;
63173;SDS011;49265;54.526;9.028;2024-02-26T05:26:45;46.60;;;8.43;;
63173;SDS011;49265;54.526;9.028;2024-02-26T05:29:10;12.70;;;6.25;;
63173;SDS011;49265;54.526;9.028;2024-02-26T05:31:35;16.52;;;6.00;;
63173;SDS011;49265;54.526;9.028;2024-02-26T05:34:01;14.18;;;5.72;;
63173;SDS011;49265;54.526;9.028;2024-02-26T05:36:26;18.83;;;6.80;;
63173;SDS011;49265;54.526;9.028;2024-02-26T05:38:53;20.85;;;6.47;;
63173;SDS011;49265;54.526;9.028;2024-02-26T05:41:19;17.05;;;7.45;;
63173;SDS011;49265;54.526;9.028;2024-02-26T05:43:51;18.58;;;6.75;;
63173;SDS011;49265;54.526;9.028;2024-02-26T05:46:20;14.60;;;7.03;;
63173;SDS011;49265;54.526;9.028;2024-02-26T05:48:50;14.13;;;6.38;;
63173;SDS011;49265;54.526;9.028;2024-02-26T05:51:15;18.77;;;6.75;;
63173;SDS011;49265;54.526;9.028;2024-02-26T05:53:41;27.50;;;7.70;;
63173;SDS011;49265;54.526;9.028;2024-02-26T05:56:06;21.98;;;8.05;;
63173;SDS011;49265;54.526;9.028;2024-02-26T05:58:31;18.45;;;7.45;;
63173;SDS011;49265;54.526;9.028;2024-02-26T06:00:57;36.45;;;7.90;;
63173;SDS011;49265;54.526;9.028;2024-02-26T06:03:22;19.58;;;7.82;;
63173;SDS011;49265;54.526;9.028;2024-02-26T06:05:47;15.00;;;7.10;;
63173;SDS011;49265;54.526;9.028;2024-02-26T06:08:13;18.35;;;7.47;;
63173;SDS011;49265;54.526;9.028;2024-02-26T06:10:39;24.42;;;7.85;;
63173;SDS011;49265;54.526;9.028;2024-02-26T06:13:04;20.95;;;9.05;;
63173;SDS011;49265;54.526;9.028;2024-02-26T06:15:29;22.13;;;11.10;;
63173;SDS011;49265;54.526;9.028;2024-02-26T06:17:55;32.28;;;11.45;;
63173;SDS011;49265;54.526;9.028;2024-02-26T06:20:20;35.13;;;12.60;;
63173;SDS011;49265;54.526;9.028;2024-02-26T06:22:45;24.60;;;10.77;;
63173;SDS011;49265;54.526;9.028;2024-02-26T06:25:11;26.10;;;12.23;;
63173;SDS011;49265;54.526;9.028;2024-02-26T06:27:36;26.35;;;11.40;;
63173;SDS011;49265;54.526;9.028;2024-02-26T06:30:01;23.55;;;10.13;;
63173;SDS011;49265;54.526;9.028;2024-02-26T06:32:29;26.30;;;10.68;;
63173;SDS011;49265;54.526;9.028;2024-02-26T06:34:54;25.25;;;10.18;;
63173;SDS011;49265;54.526;9.028;2024-02-26T06:37:20;24.65;;;10.10;;
63173;SDS011;49265;54.526;9.028;2024-02-26T06:39:45;25.60;;;11.48;;
63173;SDS011;49265;54.526;9.028;2024-02-26T06:42:10;26.00;;;9.32;;
63173;SDS011;49265;54.526;9.028;2024-02-26T06:44:36;25.88;;;10.18;;
63173;SDS011;49265;54.526;9.028;2024-02-26T06:47:01;26.17;;;10.30;;
63173;SDS011;49265;54.526;9.028;2024-02-26T06:49:27;23.95;;;10.38;;
63173;SDS011;49265;54.526;9.028;2024-02-26T06:51:52;25.00;;;9.93;;
63173;SDS011;49265;54.526;9.028;2024-02-26T06:54:18;25.38;;;10.77;;
63173;SDS011;49265;54.526;9.028;2024-02-26T06:56:43;26.50;;;9.90;;
63173;SDS011;49265;54.526;9.028;2024-02-26T06:59:08;26.95;;;10.27;;
63173;SDS011;49265;54.526;9.028;2024-02-26T07:01:34;23.65;;;9.85;;
63173;SDS011;49265;54.526;9.028;2024-02-26T07:03:59;28.98;;;11.15;;
63173;SDS011;49265;54.526;9.028;2024-02-26T07:06:26;28.83;;;11.18;;
63173;SDS011;49265;54.526;9.028;2024-02-26T07:08:52;28.48;;;11.85;;
63173;SDS011;49265;54.526;9.028;2024-02-26T07:11:17;32.58;;;11.60;;
63173;SDS011;49265;54.526;9.028;2024-02-26T07:13:45;29.40;;;10.68;;
63173;SDS011;49265;54.526;9.028;2024-02-26T07:16:10;28.13;;;11.93;;
63173;SDS011;49265;54.526;9.028;2024-02-26T07:18:35;38.03;;;11.13;;
63173;SDS011;49265;54.526;9.028;2024-02-26T07:21:01;28.80;;;9.82;;
63173;SDS011;49265;54.526;9.028;2024-02-26T07:23:27;31.77;;;10.88;;
63173;SDS011;49265;54.526;9.028;2024-02-26T07:25:52;30.00;;;11.25;;
63173;SDS011;49265;54.526;9.028;2024-02-26T07:28:18;23.92;;;9.40;;
63173;SDS011;49265;54.526;9.028;2024-02-26T07:30:43;24.73;;;9.73;;
63173;SDS011;49265;54.526;9.028;2024-02-26T07:33:08;30.27;;;10.65;;
63173;SDS011;49265;54.526;9.028;2024-02-26T07:35:34;26.98;;;10.32;;
63173;SDS011;49265;54.526;9.028;2024-02-26T07:38:01;27.50;;;10.52;;
63173;SDS011;49265;54.526;9.028;2024-02-26T07:40:26;27.90;;;9.13;;
63173;SDS011;49265;54.526;9.028;2024-02-26T07:42:52;32.47;;;10.23;;
63173;SDS011;49265;54.526;9.028;2024-02-26T07:45:17;36.90;;;10.35;;
63173;SDS011;49265;54.526;9.028;2024-02-26T07:47:45;31.92;;;10.77;;
63173;SDS011;49265;54.526;9.028;2024-02-26T07:50:11;28.55;;;9.13;;
63173;SDS011;49265;54.526;9.028;2024-02-26T07:52:37;28.05;;;10.07;;
63173;SDS011;49265;54.526;9.028;2024-02-26T07:55:02;24.23;;;10.30;;
63173;SDS011;49265;54.526;9.028;2024-02-26T07:57:28;28.58;;;10.07;;
63173;SDS011;49265;54.526;9.028;2024-02-26T07:59:53;30.42;;;10.95;;
63173;SDS011;49265;54.526;9.028;2024-02-26T08:02:18;33.05;;;12.43;;
63173;SDS011;49265;54.526;9.028;2024-02-26T08:04:43;28.17;;;11.00;;
63173;SDS011;49265;54.526;9.028;2024-02-26T08:07:09;31.52;;;11.13;;
63173;SDS011;49265;54.526;9.028;2024-02-26T08:09:34;27.92;;;11.18;;
63173;SDS011;49265;54.526;9.028;2024-02-26T08:11:59;29.25;;;11.32;;
63173;SDS011;49265;54.526;9.028;2024-02-26T08:14:25;34.70;;;13.57;;
63173;SDS011;49265;54.526;9.028;2024-02-26T08:16:50;35.25;;;13.23;;
63173;SDS011;49265;54.526;9.028;2024-02-26T08:19:16;32.60;;;11.25;;
63173;SDS011;49265;54.526;9.028;2024-02-26T08:21:42;29.50;;;10.13;;
63173;SDS011;49265;54.526;9.028;2024-02-26T08:24:08;33.58;;;11.45;;
63173;SDS011;49265;54.526;9.028;2024-02-26T08:26:33;31.23;;;11.48;;
63173;SDS011;49265;54.526;9.028;2024-02-26T08:28:59;36.13;;;12.45;;
63173;SDS011;49265;54.526;9.028;2024-02-26T08:31:24;30.13;;;11.02;;
63173;SDS011;49265;54.526;9.028;2024-02-26T08:33:49;30.98;;;11.07;;
63173;SDS011;49265;54.526;9.028;2024-02-26T08:36:15;33.33;;;10.82;;
63173;SDS011;49265;54.526;9.028;2024-02-26T08:38:41;32.38;;;11.10;;
63173;SDS011;49265;54.526;9.028;2024-02-26T08:41:06;29.30;;;12.18;;
63173;SDS011;49265;54.526;9.028;2024-02-26T08:43:31;32.95;;;10.85;;
63173;SDS011;49265;54.526;9.028;2024-02-26T08:45:57;34.45;;;11.98;;
63173;SDS011;49265;54.526;9.028;2024-02-26T08:48:22;33.60;;;11.70;;
63173;SDS011;49265;54.526;9.028;2024-02-26T08:50:48;30.85;;;11.70;;
63173;SDS011;49265;54.526;9.028;2024-02-26T08:53:13;32.45;;;12.02;;
63173;SDS011;49265;54.526;9.028;2024-02-26T08:55:38;37.47;;;14.02;;
63173;SDS011;49265;54.526;9.028;2024-02-26T08:58:03;32.78;;;12.57;;
63173;SDS011;49265;54.526;9.028;2024-02-26T09:00:29;33.00;;;12.45;;
63173;SDS011;49265;54.526;9.028;2024-02-26T09:02:54;33.58;;;12.13;;
63173;SDS011;49265;54.526;9.028;2024-02-26T09:05:19;34.40;;;11.65;;
63173;SDS011;49265;54.526;9.028;2024-02-26T09:07:45;33.58;;;12.80;;
63173;SDS011;49265;54.526;9.028;2024-02-26T09:10:11;32.40;;;13.40;;
63173;SDS011;49265;54.526;9.028;2024-02-26T09:12:37;33.17;;;14.85;;
63173;SDS011;49265;54.526;9.028;2024-02-26T09:15:03;29.38;;;10.52;;
63173;SDS011;49265;54.526;9.028;2024-02-26T09:17:28;36.65;;;13.85;;
63173;SDS011;49265;54.526;9.028;2024-02-26T09:19:53;30.20;;;10.98;;
63173;SDS011;49265;54.526;9.028;2024-02-26T09:22:19;33.55;;;11.43;;
63173;SDS011;49265;54.526;9.028;2024-02-26T09:24:44;39.38;;;14.38;;
63173;SDS011;49265;54.526;9.028;2024-02-26T09:27:10;32.28;;;14.48;;
63173;SDS011;49265;54.526;9.028;2024-02-26T09:29:35;28.85;;;12.02;;
63173;SDS011;49265;54.526;9.028;2024-02-26T09:32:00;35.05;;;13.73;;
63173;SDS011;49265;54.526;9.028;2024-02-26T09:34:26;33.33;;;12.68;;
63173;SDS011;49265;54.526;9.028;2024-02-26T09:36:51;36.08;;;15.50;;
63173;SDS011;49265;54.526;9.028;2024-02-26T09:39:17;31.48;;;12.48;;
63173;SDS011;49265;54.526;9.028;2024-02-26T09:41:46;31.05;;;13.77;;
63173;SDS011;49265;54.526;9.028;2024-02-26T09:44:12;37.47;;;13.20;;
63173;SDS011;49265;54.526;9.028;2024-02-26T09:46:40;35.15;;;12.50;;
63173;SDS011;49265;54.526;9.028;2024-02-26T09:49:06;28.48;;;11.43;;
63173;SDS011;49265;54.526;9.028;2024-02-26T09:51:31;31.80;;;11.55;;
63173;SDS011;49265;54.526;9.028;2024-02-26T09:53:58;35.55;;;13.73;;
63173;SDS011;49265;54.526;9.028;2024-02-26T09:56:24;35.15;;;12.80;;
63173;SDS011;49265;54.526;9.028;2024-02-26T09:58:50;30.92;;;10.98;;
63173;SDS011;49265;54.526;9.028;2024-02-26T10:01:19;31.00;;;11.93;;
63173;SDS011;49265;54.526;9.028;2024-02-26T10:03:44;27.80;;;11.68;;
63173;SDS011;49265;54.526;9.028;2024-02-26T10:06:12;34.25;;;14.00;;
63173;SDS011;49265;54.526;9.028;2024-02-26T10:08:40;31.13;;;13.90;;
63173;SDS011;49265;54.526;9.028;2024-02-26T10:11:07;29.83;;;13.00;;
63173;SDS011;49265;54.526;9.028;2024-02-26T10:13:34;28.73;;;12.55;;
63173;SDS011;49265;54.526;9.028;2024-02-26T10:16:00;29.05;;;11.50;;
63173;SDS011;49265;54.526;9.028;2024-02-26T10:18:33;29.25;;;11.57;;
63173;SDS011;49265;54.526;9.028;2024-02-26T10:21:09;28.35;;;13.60;;
63173;SDS011;49265;54.526;9.028;2024-02-26T10:23:34;27.73;;;10.98;;
63173;SDS011;49265;54.526;9.028;2024-02-26T10:26:00;29.35;;;12.20;;
63173;SDS011;49265;54.526;9.028;2024-02-26T10:28:25;29.23;;;13.68;;
63173;SDS011;49265;54.526;9.028;2024-02-26T10:30:51;25.52;;;11.65;;
63173;SDS011;49265;54.526;9.028;2024-02-26T10:33:18;26.13;;;11.20;;
63173;SDS011;49265;54.526;9.028;2024-02-26T10:35:46;30.42;;;14.50;;
63173;SDS011;49265;54.526;9.028;2024-02-26T10:38:12;27.83;;;12.43;;
63173;SDS011;49265;54.526;9.028;2024-02-26T10:40:37;29.58;;;12.98;;
63173;SDS011;49265;54.526;9.028;2024-02-26T10:43:03;30.98;;;14.60;;
63173;SDS011;49265;54.526;9.028;2024-02-26T10:45:28;25.90;;;12.57;;
63173;SDS011;49265;54.526;9.028;2024-02-26T10:47:53;24.17;;;11.23;;
63173;SDS011;49265;54.526;9.028;2024-02-26T10:50:19;21.15;;;10.00;;
63173;SDS011;49265;54.526;9.028;2024-02-26T10:52:44;22.00;;;9.60;;
63173;SDS011;49265;54.526;9.028;2024-02-26T10:55:13;20.88;;;9.38;;
63173;SDS011;49265;54.526;9.028;2024-02-26T10:57:40;48.50;;;19.90;;
63173;SDS011;49265;54.526;9.028;2024-02-26T11:00:06;26.45;;;11.20;;
63173;SDS011;49265;54.526;9.028;2024-02-26T11:02:32;23.60;;;10.45;;
63173;SDS011;49265;54.526;9.028;2024-02-26T11:04:58;24.90;;;10.85;;
63173;SDS011;49265;54.526;9.028;2024-02-26T11:07:25;20.38;;;9.00;;
63173;SDS011;49265;54.526;9.028;2024-02-26T11:09:51;21.30;;;10.05;;
63173;SDS011;49265;54.526;9.028;2024-02-26T11:12:18;17.75;;;8.80;;
63173;SDS011;49265;54.526;9.028;2024-02-26T11:14:45;19.20;;;9.27;;
63173;SDS011;49265;54.526;9.028;2024-02-26T11:17:11;18.25;;;8.85;;
63173;SDS011;49265;54.526;9.028;2024-02-26T11:19:37;20.08;;;9.65;;
63173;SDS011;49265;54.526;9.028;2024-02-26T11:22:03;33.75;;;15.00;;
63173;SDS011;49265;54.526;9.028;2024-02-26T11:24:29;25.92;;;10.77;;
63173;SDS011;49265;54.526;9.028;2024-02-26T11:26:55;22.73;;;10.95;;
63173;SDS011;49265;54.526;9.028;2024-02-26T11:29:24;26.65;;;12.32;;
63173;SDS011;49265;54.526;9.028;2024-02-26T11:31:50;28.13;;;12.90;;
63173;SDS011;49265;54.526;9.028;2024-02-26T11:34:16;23.23;;;10.90;;
63173;SDS011;49265;54.526;9.028;2024-02-26T11:36:41;21.25;;;10.00;;
63173;SDS011;49265;54.526;9.028;2024-02-26T11:39:07;25.73;;;11.90;;
63173;SDS011;49265;54.526;9.028;2024-02-26T11:41:33;23.10;;;10.38;;
63173;SDS011;49265;54.526;9.028;2024-02-26T11:43:59;29.73;;;12.98;;
63173;SDS011;49265;54.526;9.028;2024-02-26T11:46:32;23.77;;;10.90;;
63173;SDS011;49265;54.526;9.028;2024-02-26T11:48:59;20.90;;;9.75;;
63173;SDS011;49265;54.526;9.028;2024-02-26T11:51:26;21.90;;;10.30;;
63173;SDS011;49265;54.526;9.028;2024-02-26T11:53:52;26.20;;;11.10;;
63173;SDS011;49265;54.526;9.028;2024-02-26T11:58:46;21.90;;;10.98;;
63173;SDS011;49265;54.526;9.028;2024-02-26T12:03:56;21.52;;;10.20;;
63173;SDS011;49265;54.526;9.028;2024-02-26T12:06:21;22.20;;;10.32;;
63173;SDS011;49265;54.526;9.028;2024-02-26T12:08:47;24.55;;;11.52;;
63173;SDS011;49265;54.526;9.028;2024-02-26T12:11:15;23.60;;;10.05;;
63173;SDS011;49265;54.526;9.028;2024-02-26T12:13:41;21.77;;;10.02;;
63173;SDS011;49265;54.526;9.028;2024-02-26T12:16:06;23.95;;;10.15;;
63173;SDS011;49265;54.526;9.028;2024-02-26T12:18:32;25.33;;;10.27;;
63173;SDS011;49265;54.526;9.028;2024-02-26T12:20:59;21.15;;;9.38;;
63173;SDS011;49265;54.526;9.028;2024-02-26T12:23:28;22.73;;;10.80;;
63173;SDS011;49265;54.526;9.028;2024-02-26T12:25:54;19.67;;;9.85;;
63173;SDS011;49265;54.526;9.028;2024-02-26T12:28:19;21.55;;;10.73;;
63173;SDS011;49265;54.526;9.028;2024-02-26T12:30:44;22.48;;;10.20;;
63173;SDS011;49265;54.526;9.028;2024-02-26T12:33:10;19.27;;;9.50;;
63173;SDS011;49265;54.526;9.028;2024-02-26T12:35:36;19.08;;;9.70;;
63173;SDS011;49265;54.526;9.028;2024-02-26T12:38:01;19.20;;;8.77;;
63173;SDS011;49265;54.526;9.028;2024-02-26T12:40:28;22.45;;;10.35;;
63173;SDS011;49265;54.526;9.028;2024-02-26T12:42:54;18.77;;;9.52;;
63173;SDS011;49265;54.526;9.028;2024-02-26T12:45:20;20.25;;;9.73;;
63173;SDS011;49265;54.526;9.028;2024-02-26T12:47:46;18.13;;;9.80;;
63173;SDS011;49265;54.526;9.028;2024-02-26T12:50:12;20.35;;;9.85;;
63173;SDS011;49265;54.526;9.028;2024-02-26T12:52:39;19.17;;;10.02;;
63173;SDS011;49265;54.526;9.028;2024-02-26T12:55:04;20.50;;;9.77;;
63173;SDS011;49265;54.526;9.028;2024-02-26T12:57:31;20.33;;;9.68;;
63173;SDS011;49265;54.526;9.028;2024-02-26T12:59:57;20.73;;;9.45;;
63173;SDS011;49265;54.526;9.028;2024-02-26T13:02:22;19.85;;;9.88;;
63173;SDS011;49265;54.526;9.028;2024-02-26T13:04:48;18.33;;;9.48;;
63173;SDS011;49265;54.526;9.028;2024-02-26T13:07:13;19.25;;;10.48;;
63173;SDS011;49265;54.526;9.028;2024-02-26T13:09:39;19.75;;;9.27;;
63173;SDS011;49265;54.526;9.028;2024-02-26T13:12:05;18.65;;;8.90;;
63173;SDS011;49265;54.526;9.028;2024-02-26T13:14:31;21.45;;;10.05;;
63173;SDS011;49265;54.526;9.028;2024-02-26T13:16:57;15.70;;;8.23;;
63173;SDS011;49265;54.526;9.028;2024-02-26T13:19:23;18.45;;;9.40;;
63173;SDS011;49265;54.526;9.028;2024-02-26T13:21:48;21.75;;;10.27;;
63173;SDS011;49265;54.526;9.028;2024-02-26T13:24:14;18.20;;;9.30;;
63173;SDS011;49265;54.526;9.028;2024-02-26T13:26:39;18.67;;;9.73;;
63173;SDS011;49265;54.526;9.028;2024-02-26T13:29:04;15.75;;;9.00;;
63173;SDS011;49265;54.526;9.028;2024-02-26T13:31:30;18.23;;;9.38;;
63173;SDS011;49265;54.526;9.028;2024-02-26T13:33:55;17.95;;;9.00;;
63173;SDS011;49265;54.526;9.028;2024-02-26T13:36:21;16.52;;;8.65;;
63173;SDS011;49265;54.526;9.028;2024-02-26T13:38:53;16.67;;;9.38;;
63173;SDS011;49265;54.526;9.028;2024-02-26T13:41:19;20.17;;;9.73;;
63173;SDS011;49265;54.526;9.028;2024-02-26T13:43:46;19.23;;;10.40;;
63173;SDS011;49265;54.526;9.028;2024-02-26T13:46:11;18.10;;;8.95;;
63173;SDS011;49265;54.526;9.028;2024-02-26T13:48:39;16.42;;;9.38;;
63173;SDS011;49265;54.526;9.028;2024-02-26T13:51:04;16.50;;;8.60;;
63173;SDS011;49265;54.526;9.028;2024-02-26T13:53:30;19.13;;;9.45;;
63173;SDS011;49265;54.526;9.028;2024-02-26T13:55:55;16.85;;;8.82;;
63173;SDS011;49265;54.526;9.028;2024-02-26T13:58:21;15.98;;;8.60;;
63173;SDS011;49265;54.526;9.028;2024-02-26T14:03:14;16.05;;;8.70;;
63173;SDS011;49265;54.526;9.028;2024-02-26T14:05:39;16.00;;;8.43;;
63173;SDS011;49265;54.526;9.028;2024-02-26T14:08:06;16.05;;;8.75;;
63173;SDS011;49265;54.526;9.028;2024-02-26T14:10:31;14.63;;;8.20;;
63173;SDS011;49265;54.526;9.028;2024-02-26T14:12:57;16.80;;;9.05;;
63173;SDS011;49265;54.526;9.028;2024-02-26T14:15:22;15.35;;;8.40;;
63173;SDS011;49265;54.526;9.028;2024-02-26T14:17:50;14.95;;;8.20;;
63173;SDS011;49265;54.526;9.028;2024-02-26T14:20:20;17.38;;;8.30;;
63173;SDS011;49265;54.526;9.028;2024-02-26T14:22:45;15.05;;;8.48;;
63173;SDS011;49265;54.526;9.028;2024-02-26T14:25:10;15.85;;;8.48;;
63173;SDS011;49265;54.526;9.028;2024-02-26T14:27:36;14.60;;;7.85;;
63173;SDS011;49265;54.526;9.028;2024-02-26T14:30:01;14.98;;;8.32;;
63173;SDS011;49265;54.526;9.028;2024-02-26T14:32:30;12.65;;;7.40;;